Data for 05/04/2005

Time Sea-Level Adjusted Pressure Absolute Pressure Temperature Relative Humidity Dew Point   
(mb) (inHg) (mb) (inHg) (C) (F) (%) (C) (F)
00:05 1017 30.03 846 24.98 6.1 43 83 3.5 38.2
00:10 1017 30.03 846 24.98 6.2 43.2 84 3.6 38.5
00:15 1017 30.03 846 24.98 6.2 43.2 84 3.7 38.7
00:20 1017 30.03 846 24.98 6.1 43.1 84 3.6 38.5
00:25 1017 30.03 846 24.98 6.5 43.6 82 3.6 38.5
00:30 1017 30.03 846 24.98 6.8 44.2 81 3.8 38.9
00:35 1017 30.03 846 24.98 6.8 44.2 82 3.9 39
00:40 1017 30.03 846 24.98 7 44.5 82 4.1 39.4
00:45 1017 30.03 846 24.98 7 44.5 82 4.1 39.5
00:50 1017 30.03 846 24.98 6.9 44.4 82 4 39.2
00:55 1017 30.03 846 24.98 7 44.5 81 3.8 38.9
01:00 1017 30.03 846 24.98 7 44.7 81 3.9 39.1
01:05 1017 30.03 846 24.98 6.8 44.2 82 4 39.1
01:10 1017 30.03 846 24.98 6.6 43.9 81 3.6 38.5
01:15 1017 30.03 846 24.98 6.5 43.8 81 3.6 38.5
01:20 1017 30.03 846 24.98 6.5 43.7 83 3.9 38.9
01:25 1017 30.03 846 24.98 6.4 43.5 82 3.5 38.4
01:30 1017 30.03 846 24.98 6.5 43.8 81 3.4 38.2
01:35 1017 30.03 846 24.98 6.6 44 80 3.4 38.1
01:40 1017 30.03 846 24.98 6.8 44.2 79 3.4 38.1
01:45 1017 30.03 846 24.98 6.9 44.5 79 3.6 38.5
01:50 1017 30.03 846 24.98 6.7 44.1 80 3.6 38.5
01:55 1017 30.03 846 24.98 6.4 43.6 81 3.4 38.1
02:00 1017 30.03 846 24.98 6.2 43.2 82 3.4 38.2
02:05 1017 30.03 846 24.98 6 42.7 83 3.3 37.9
02:10 1017 30.03 846 24.98 6 42.8 81 2.9 37.3
02:15 1017 30.03 846 24.98 5.9 42.5 81 2.8 37
02:20 1017 30.03 846 24.98 5.9 42.5 80 2.8 37
02:25 1017 30.03 846 24.98 5.8 42.5 80 2.7 36.8
02:30 1017 30.03 846 24.98 5.8 42.4 80 2.6 36.7
02:35 1017 30.03 846 24.98 5.7 42.3 80 2.5 36.5
02:40 1017 30.03 846 24.98 5.5 41.9 81 2.4 36.3
02:45 1017 30.03 846 24.98 5.3 41.5 83 2.6 36.7
02:50 1017 30.03 846 24.98 5 41 83 2.3 36.1
02:55 1017 30.03 846 24.98 5 41.1 82 2.2 36
03:00 1017 30.03 846 24.98 5 41 82 2.1 35.8
03:05 1017 30.03 846 24.98 4.8 40.6 83 2.2 35.9
03:10 1017 30.03 846 24.98 4.7 40.5 82 2 35.6
03:15 1017 30.03 846 24.98 4.9 40.9 82 2 35.7
03:20 1017 30.03 846 24.98 4.9 40.9 82 2.1 35.7
03:25 1017 30.03 846 24.98 5 41.1 82 2.2 36
03:30 1017 30.03 846 24.98 5.1 41.1 83 2.5 36.4
03:35 1017 30.03 846 24.98 4.8 40.7 85 2.5 36.5
03:40 1017 30.03 846 24.98 4.6 40.2 88 2.7 36.9
03:45 1017 30.03 846 24.98 4.4 40 88 2.6 36.8
03:50 1017 30.03 846 24.98 4.3 39.7 88 2.5 36.5
03:55 1017 30.03 846 24.98 4.3 39.7 87 2.4 36.2
04:00 1017 30.03 846 24.98 4.5 40.1 86 2.3 36.2
04:05 1017 30.03 846 24.98 4.5 40 85 2.2 35.9
04:10 1017 30.03 846 24.98 4.6 40.3 83 2 35.7
04:15 1017 30.03 846 24.98 4.9 40.8 82 2.1 35.8
04:20 1017 30.03 846 24.98 4.9 40.7 82 2.1 35.7
04:25 1017 30.03 846 24.98 4.8 40.7 82 2 35.5
04:30 1017 30.03 846 24.98 4.9 40.9 81 1.9 35.4
04:35 1017 30.03 846 24.98 5 41 81 1.9 35.5
04:40 1017 30.03 846 24.98 4.8 40.7 80 1.7 35.1
04:45 1017 30.03 846 24.98 4.9 40.8 79 1.6 34.9
04:50 1017 30.03 846 24.98 4.3 39.8 81 1.3 34.4
04:55 1017 30.03 846 24.98 4.2 39.5 81 1.1 34.1
05:00 1017 30.03 846 24.98 4.2 39.6 81 1.2 34.2
05:05 1017 30.03 846 24.98 4 39.3 81 1.1 34
05:10 1017 30.03 846 24.98 4.1 39.3 82 1.2 34.1
05:15 1017 30.03 846 24.98 4.1 39.3 79 0.8 33.5
05:20 1017 30.03 846 24.98 4.3 39.8 79 1.1 33.9
05:25 1017 30.03 846 24.98 4.2 39.6 79 0.9 33.7
05:30 1017 30.03 846 24.98 4.4 39.9 79 1.1 34
05:35 1017 30.03 846 24.98 4.2 39.5 80 1 33.9
05:40 1017 30.03 846 24.98 3.9 39 80 0.7 33.2
05:45 1017 30.03 847 25.01 3.5 38.4 81 0.7 33.2
05:50 1017 30.03 847 25.01 3.2 37.8 81 0.2 32.4
05:55 1017 30.03 847 25.01 3.6 38.5 79 0.4 32.7
06:00 1017 30.03 847 25.01 4.2 39.6 77 0.5 32.9
06:05 1017 30.03 847 25.01 3.4 38.2 83 0.8 33.4
06:10 1017 30.03 847 25.01 2.9 37.2 84 0.5 32.9
06:15 1018 30.06 847 25.01 3.1 37.7 83 0.6 33.1
06:20 1018 30.06 847 25.01 3.6 38.5 82 0.8 33.4
06:25 1018 30.06 847 25.01 3.9 39 80 0.8 33.5
06:30 1018 30.06 847 25.01 4.1 39.4 78 0.7 33.2
06:35 1018 30.06 847 25.01 4.7 40.5 76 0.9 33.7
06:40 1018 30.06 847 25.01 5 41 76 1.1 34
06:45 1018 30.06 847 25.01 5 41 75 1 33.8
06:50 1018 30.06 847 25.01 5.2 41.3 75 1.1 34
06:55 1018 30.06 847 25.01 5.4 41.8 76 1.5 34.6
07:00 1018 30.06 847 25.01 5.3 41.6 77 1.6 34.9
07:05 1018 30.06 847 25.01 5 40.9 79 1.6 34.8
07:10 1018 30.06 847 25.01 4.8 40.6 80 1.6 35
07:15 1018 30.06 847 25.01 4.7 40.5 79 1.4 34.6
07:20 1018 30.06 847 25.01 4.5 40.1 81 1.5 34.6
07:25 1018 30.06 847 25.01 4.4 39.8 79 1 33.8
07:30 1018 30.06 847 25.01 4.9 40.8 77 1.2 34.1
07:35 1018 30.06 847 25.01 4.9 40.8 79 1.6 34.8
07:40 1018 30.06 847 25.01 4.7 40.5 80 1.5 34.7
07:45 1018 30.06 847 25.01 4.8 40.6 78 1.4 34.4
07:50 1018 30.06 847 25.01 5.1 41.2 76 1.3 34.3
07:55 1018 30.06 847 25.01 5.5 41.9 74 1.4 34.4
08:00 1018 30.06 847 25.01 6.5 43.8 71 1.6 35
08:05 1018 30.06 847 25.01 6.4 43.6 75 2.2 36
08:10 1018 30.06 847 25.01 6.6 43.8 76 2.6 36.7
08:15 1018 30.06 847 25.01 6.8 44.3 75 2.7 36.9
08:20 1018 30.06 847 25.01 7.2 44.9 74 2.8 37.1
08:25 1018 30.06 847 25.01 7.7 45.9 71 2.8 37.1
08:30 1018 30.06 847 25.01 8.3 46.9 69 3 37.5
08:35 1018 30.06 847 25.01 8.8 47.8 68 3.3 37.9
08:40 1018 30.06 847 25.01 9 48.2 67 3.3 38
08:45 1018 30.06 847 25.01 9.4 48.8 65 3.1 37.6
08:50 1018 30.06 847 25.01 9.8 49.7 67 4 39.1
08:55 1018 30.06 847 25.01 10.7 51.2 60 3.3 37.9
09:00 1018 30.06 847 25.01 11 51.7 57 2.8 37
09:05 1018 30.06 847 25.01 10.1 50.2 60 2.8 37
09:10 1018 30.06 847 25.01 10.1 50.2 59 2.5 36.4
09:15 1018 30.06 847 25.01 10.3 50.6 59 2.8 37
09:20 1018 30.06 847 25.01 11 51.7 55 2.4 36.4
09:25 1018 30.06 847 25.01 11.9 53.5 53 2.8 37
09:30 1018 30.06 847 25.01 12.6 54.6 51 2.8 37.1
09:35 1018 30.06 847 25.01 13.1 55.6 49 2.7 36.8
09:40 1018 30.06 847 25.01 13.2 55.8 49 2.9 37.3
09:45 1018 30.06 847 25.01 13.4 56.2 50 3.2 37.8
09:50 1018 30.06 847 25.01 13.8 56.9 48 3 37.4
09:55 1018 30.06 847 25.01 14.1 57.4 48 3.3 37.9
10:00 1018 30.06 847 25.01 13.4 56.1 51 3.5 38.4
10:05 1018 30.06 847 25.01 13 55.4 52 3.5 38.4
10:10 1018 30.06 847 25.01 12.6 54.7 54 3.7 38.6
10:15 1018 30.06 847 25.01 13.2 55.7 50 3.1 37.5
10:20 1018 30.06 847 25.01 14.3 57.8 47 3.4 38
10:25 1018 30.06 847 25.01 14.3 57.8 48 3.4 38.2
10:30 1018 30.06 847 25.01 14.9 58.9 46 3.6 38.4
10:35 1018 30.06 847 25.01 15.3 59.5 45 3.6 38.4
10:40 1018 30.06 847 25.01 15.7 60.3 43 3.4 38.2
10:45 1018 30.06 847 25.01 16 60.8 44 3.8 38.8
10:50 1018 30.06 847 25.01 16 60.8 45 4.2 39.6
10:55 1018 30.06 847 25.01 15.2 59.4 44 3.1 37.6
11:00 1018 30.06 847 25.01 14.3 57.7 48 3.4 38.2
11:05 1018 30.06 847 25.01 13.7 56.6 46 2.5 36.5
11:10 1018 30.06 847 25.01 14.7 58.5 45 2.9 37.3
11:15 1018 30.06 847 25.01 15.3 59.5 43 2.8 37
11:20 1018 30.06 847 25.01 15.5 59.9 45 3.6 38.4
11:25 1018 30.06 847 25.01 14.9 58.8 45 3.3 37.9
11:30 1018 30.06 847 25.01 15 59 47 3.7 38.7
11:35 1018 30.06 847 25.01 15.2 59.3 45 3.5 38.3
11:40 1018 30.06 847 25.01 15 59.1 46 3.7 38.7
11:45 1018 30.06 847 25.01 15.1 59.2 46 3.6 38.6
11:50 1018 30.06 847 25.01 14.8 58.7 47 3.7 38.7
11:55 1018 30.06 847 25.01 14.4 58 47 3.2 37.8
12:00 1018 30.06 847 25.01 14.5 58 46 3.1 37.5
12:05 1018 30.06 847 25.01 15.3 59.5 43 2.8 37.1
12:10 1018 30.06 847 25.01 14.5 58.2 47 3.4 38.1
12:15 1018 30.06 847 25.01 13.7 56.6 48 3 37.5
12:20 1018 30.06 847 25.01 14.5 58.2 45 2.7 36.9
12:25 1018 30.06 847 25.01 15.4 59.7 41 2.2 36
12:30 1018 30.06 847 25.01 15.7 60.2 41 2.7 36.9
12:35 1018 30.06 847 25.01 15.8 60.4 41 2.7 36.9
12:40 1018 30.06 847 25.01 16.4 61.6 39 2.6 36.6
12:45 1018 30.06 847 25.01 17.3 63.2 38 2.9 37.2
12:50 1018 30.06 847 25.01 17.6 63.6 36 2.3 36.2
12:55 1017 30.03 847 25.01 17.5 63.5 35 2.2 35.9
13:00 1017 30.03 847 25.01 17.2 62.9 35 1.6 34.9
13:05 1017 30.03 847 25.01 16.6 61.9 38 2.2 35.9
13:10 1017 30.03 847 25.01 16.4 61.4 38 1.9 35.5
13:15 1017 30.03 846 24.98 16.7 62 33 0.6 33.1
13:20 1017 30.03 846 24.98 17.9 64.1 31 0.7 33.3
13:25 1017 30.03 846 24.98 17.7 63.9 33 1.2 34.2
13:30 1017 30.03 846 24.98 17.1 62.8 33 0.6 33.2
13:35 1017 30.03 846 24.98 17.2 62.9 31 -0.2 31.7
13:40 1017 30.03 846 24.98 17.2 62.9 31 0.1 32.2
13:45 1017 30.03 846 24.98 16.8 62.3 32 0.1 32.2
13:50 1017 30.03 846 24.98 17.3 63.1 31 -0 31.9
13:55 1017 30.03 846 24.98 17.5 63.5 31 0.1 32.2
14:00 1017 30.03 846 24.98 17.2 63 31 0.1 32.2
14:05 1017 30.03 846 24.98 17.4 63.4 30 -0.3 31.5
14:10 1017 30.03 846 24.98 17.9 64.2 29 -0.1 31.9
14:15 1017 30.03 846 24.98 18.2 64.7 30 0.2 32.4
14:20 1017 30.03 846 24.98 18.6 65.4 30 0.8 33.4
14:25 1017 30.03 846 24.98 18.8 65.8 28 -0.2 31.7
14:30 1017 30.03 846 24.98 18.8 65.8 28 0.2 32.3
14:35 1017 30.03 846 24.98 18.7 65.6 28 -0.2 31.6
14:40 1017 30.03 846 24.98 18.4 65.1 29 0.3 32.5
14:45 1017 30.03 846 24.98 18.8 65.9 29 0.4 32.8
14:50 1017 30.03 846 24.98 18.7 65.6 29 0.6 33.2
14:55 1017 30.03 846 24.98 18.4 65.2 29 0.1 32.1
15:00 1017 30.03 846 24.98 19.5 67 27 0.1 32.3
15:05 1017 30.03 846 24.98 19.5 67.1 28 0.5 32.8
15:10 1017 30.03 846 24.98 17.9 64.1 30 0.4 32.7
15:15 1017 30.03 846 24.98 17.7 63.8 30 0.1 32.3
15:20 1017 30.03 846 24.98 18.2 64.8 29 0.2 32.3
15:25 1017 30.03 846 24.98 18.7 65.6 30 0.7 33.3
15:30 1017 30.03 846 24.98 18.2 64.8 30 0.4 32.7
15:35 1017 30.03 846 24.98 18.3 64.9 28 -0.5 31
15:40 1017 30.03 846 24.98 18.5 65.4 28 -0.2 31.6
15:45 1017 30.03 846 24.98 18.8 65.9 28 0.2 32.3
15:50 1017 30.03 846 24.98 18.2 64.8 29 -0.1 31.9
15:55 1017 30.03 846 24.98 17.9 64.2 30 0.4 32.6
16:00 1017 30.03 846 24.98 17.5 63.5 31 0.2 32.3
16:05 1017 30.03 846 24.98 17.1 62.7 32 0.3 32.6
16:10 1016 30 846 24.98 16.9 62.5 31 -0.2 31.6
16:15 1016 30 846 24.98 17.3 63.1 30 -0.1 31.8
16:20 1016 30 846 24.98 17.9 64.2 28 -0.5 31.1
16:25 1016 30 846 24.98 17.8 64 30 -0 31.9
16:30 1016 30 845 24.95 17.8 64.1 29 -0.3 31.4
16:35 1016 30 845 24.95 18.5 65.3 28 -0.4 31.4
16:40 1016 30 845 24.95 18.4 65 29 0.1 32.1
16:45 1016 30 845 24.95 17.4 63.3 30 -0.2 31.6
16:50 1016 30 845 24.95 17.8 64 29 -0.3 31.4
16:55 1016 30 845 24.95 18.2 64.7 29 -0.2 31.7
17:00 1016 30 845 24.95 18.2 64.7 30 0.5 32.8
17:05 1016 30 845 24.95 17.1 62.8 32 0.2 32.4
17:10 1016 30 846 24.98 16.8 62.3 31 -0.3 31.5
17:15 1016 30 845 24.95 16.9 62.4 31 -0.4 31.3
17:20 1016 30 845 24.95 16.7 62.1 32 -0.1 31.8
17:25 1016 30 846 24.98 16.8 62.3 31 -0.1 31.7
17:30 1016 30 845 24.95 15.4 59.6 38 1.3 34.3
17:35 1016 30 846 24.98 14.9 58.7 38 0.9 33.6
17:40 1016 30 846 24.98 14.4 58 44 2.3 36.1
17:45 1016 30 846 24.98 14.1 57.5 44 2.2 36
17:50 1016 30 846 24.98 14.3 57.7 42 1.5 34.7
17:55 1016 30 846 24.98 14.6 58.2 42 2 35.6
18:00 1017 30.03 846 24.98 14.4 58 43 2 35.6
18:05 1017 30.03 846 24.98 14.4 58 46 2.9 37.2
18:10 1017 30.03 846 24.98 14 57.2 52 4.4 40
18:15 1017 30.03 846 24.98 13.4 56.1 51 3.5 38.4
18:20 1017 30.03 846 24.98 13.6 56.5 46 2.3 36.2
18:25 1017 30.03 846 24.98 14 57.2 50 4 39.1
18:30 1017 30.03 846 24.98 14.1 57.4 50 4 39.2
18:35 1017 30.03 846 24.98 13.9 57 52 4.3 39.8
18:40 1017 30.03 846 24.98 13.6 56.5 51 3.8 38.8
18:45 1017 30.03 846 24.98 13.5 56.4 53 4.1 39.5
18:50 1017 30.03 847 25.01 13.2 55.8 56 4.8 40.6
18:55 1017 30.03 847 25.01 12.5 54.5 59 4.7 40.4
19:00 1018 30.06 847 25.01 12 53.7 63 5.3 41.6
19:05 1018 30.06 847 25.01 11.6 52.9 67 5.8 42.4
19:10 1018 30.06 847 25.01 11.4 52.5 66 5.3 41.6
19:15 1018 30.06 847 25.01 11.5 52.7 68 5.8 42.4
19:20 1018 30.06 847 25.01 11.6 52.8 68 5.9 42.7
19:25 1018 30.06 847 25.01 11.4 52.5 72 6.5 43.7
19:30 1018 30.06 847 25.01 11.1 52 71 6.2 43.1
19:35 1018 30.06 847 25.01 11.1 51.9 71 6.1 42.9
19:40 1018 30.06 847 25.01 11.2 52.2 69 5.9 42.5
19:45 1018 30.06 847 25.01 11.2 52.1 73 6.6 43.8
19:50 1018 30.06 847 25.01 11.2 52.2 75 7 44.5
19:55 1018 30.06 847 25.01 11.1 51.9 76 7.1 44.8
20:00 1018 30.06 847 25.01 10.9 51.5 77 7 44.6
20:05 1018 30.06 848 25.04 10.5 51 79 7 44.6
20:10 1018 30.06 848 25.04 10.3 50.6 80 7 44.7
20:15 1018 30.06 848 25.04 10.2 50.3 82 7.3 45.2
20:20 1018 30.06 848 25.04 9.8 49.6 85 7.3 45.2
20:25 1018 30.06 848 25.04 9.5 49.1 87 7.4 45.4
20:30 1018 30.06 848 25.04 9 48.1 89 7.3 45.2
20:35 1018 30.06 848 25.04 8.9 48 90 7.3 45.1
20:40 1018 30.06 848 25.04 8.9 48 90 7.4 45.3
20:45 1018 30.06 848 25.04 8.8 47.9 89 7.2 45
20:50 1018 30.06 848 25.04 8.8 47.8 90 7.2 44.9
20:55 1018 30.06 848 25.04 8.7 47.6 91 7.3 45.1
21:00 1018 30.06 848 25.04 8.7 47.7 90 7.2 45
21:05 1018 30.06 848 25.04 8.9 48 89 7.2 44.9
21:10 1018 30.06 848 25.04 9 48.2 89 7.3 45.1
21:15 1018 30.06 848 25.04 8.9 48 89 7.2 44.9
21:20 1018 30.06 848 25.04 8.7 47.7 89 7.1 44.7
21:25 1018 30.06 848 25.04 8.6 47.6 91 7.2 45
21:30 1018 30.06 847 25.01 8.5 47.4 92 7.3 45.1
21:35 1018 30.06 847 25.01 8.6 47.4 91 7.2 45
21:40 1018 30.06 847 25.01 8.6 47.4 91 7.2 44.9
21:45 1018 30.06 847 25.01 8.5 47.3 91 7.1 44.8
21:50 1018 30.06 847 25.01 8.4 47.1 91 7 44.6
21:55 1018 30.06 847 25.01 8.5 47.2 92 7.3 45.1
22:00 1018 30.06 847 25.01 8.4 47.1 91 7 44.6
22:05 1018 30.06 847 25.01 8.4 47.2 90 6.9 44.4
22:10 1018 30.06 847 25.01 8.5 47.2 91 7 44.6
22:15 1018 30.06 847 25.01 8.6 47.5 89 6.9 44.5
22:20 1018 30.06 847 25.01 8.5 47.3 91 7.2 44.9
22:25 1018 30.06 847 25.01 8.3 47 93 7.2 44.9
22:30 1018 30.06 848 25.04 8.1 46.6 93 7 44.7
22:35 1018 30.06 848 25.04 8.2 46.7 92 7 44.5
22:40 1018 30.06 848 25.04 8.1 46.6 92 6.9 44.5
22:45 1018 30.06 848 25.04 8.1 46.5 92 6.8 44.3
22:50 1018 30.06 847 25.01 8.1 46.5 92 6.9 44.4
22:55 1018 30.06 847 25.01 8.1 46.5 92 6.8 44.3
23:00 1018 30.06 848 25.04 8.1 46.6 92 6.9 44.4
23:05 1018 30.06 848 25.04 8.3 46.9 91 6.9 44.5
23:10 1018 30.06 847 25.01 8.1 46.6 92 6.9 44.4
23:15 1018 30.06 848 25.04 8.2 46.8 91 6.8 44.3
23:20 1018 30.06 848 25.04 8.2 46.7 91 6.9 44.4
23:25 1018 30.06 848 25.04 8.1 46.6 92 6.9 44.3
23:30 1018 30.06 848 25.04 8.2 46.8 91 6.8 44.3
23:35 1018 30.06 848 25.04 8.4 47 89 6.7 44
23:40 1018 30.06 848 25.04 8.2 46.7 88 6.3 43.4
23:45 1018 30.06 848 25.04 8.2 46.7 89 6.4 43.5
23:50 1018 30.06 848 25.04 8.1 46.6 89 6.4 43.6
23:55 1019 30.09 848 25.04 8.1 46.6 88 6.3 43.3
24:00 1019 30.09 848 25.04 7.9 46.2 88 6 42.9